sensor_id;sensor_type;location;lat;lon;timestamp;pressure;altitude;pressure_sealevel;temperature;humidity
57801;BME280;43627;42.728;23.256;2023-04-24T00:02:22;94711.41;;;9.97;89.56
57801;BME280;43627;42.728;23.256;2023-04-24T00:04:51;94756.25;;;10.11;88.83
57801;BME280;43627;42.728;23.256;2023-04-24T00:07:18;94668.72;;;9.46;91.65
57801;BME280;43627;42.728;23.256;2023-04-24T00:09:46;94668.06;;;9.27;93.65
57801;BME280;43627;42.728;23.256;2023-04-24T00:12:16;94758.16;;;9.62;93.98
57801;BME280;43627;42.728;23.256;2023-04-24T00:15:15;94747.16;;;9.57;95.63
57801;BME280;43627;42.728;23.256;2023-04-24T00:18:10;94669.22;;;9.02;95.53
57801;BME280;43627;42.728;23.256;2023-04-24T00:20:56;94704.41;;;9.48;93.06
57801;BME280;43627;42.728;23.256;2023-04-24T00:24:00;94680.13;;;9.35;91.54
57801;BME280;43627;42.728;23.256;2023-04-24T00:26:40;94681.00;;;9.41;93.89
57801;BME280;43627;42.728;23.256;2023-04-24T00:29:08;94732.19;;;9.85;100.00
57801;BME280;43627;42.728;23.256;2023-04-24T00:31:35;94739.44;;;9.88;100.00
57801;BME280;43627;42.728;23.256;2023-04-24T00:34:02;94751.44;;;9.82;100.00
57801;BME280;43627;42.728;23.256;2023-04-24T00:36:30;94739.69;;;9.66;100.00
57801;BME280;43627;42.728;23.256;2023-04-24T00:38:57;94677.78;;;9.19;100.00
57801;BME280;43627;42.728;23.256;2023-04-24T00:41:27;94744.31;;;9.51;100.00
57801;BME280;43627;42.728;23.256;2023-04-24T00:43:54;94736.00;;;9.45;100.00
57801;BME280;43627;42.728;23.256;2023-04-24T00:46:21;94697.28;;;9.08;100.00
57801;BME280;43627;42.728;23.256;2023-04-24T00:48:48;94743.19;;;9.25;100.00
57801;BME280;43627;42.728;23.256;2023-04-24T00:51:15;94726.28;;;9.21;100.00
57801;BME280;43627;42.728;23.256;2023-04-24T00:53:42;94741.69;;;9.24;100.00
57801;BME280;43627;42.728;23.256;2023-04-24T00:56:09;94733.34;;;9.27;100.00
57801;BME280;43627;42.728;23.256;2023-04-24T00:58:36;94734.09;;;9.28;100.00
57801;BME280;43627;42.728;23.256;2023-04-24T01:01:03;94726.75;;;9.19;100.00
57801;BME280;43627;42.728;23.256;2023-04-24T01:03:34;94661.91;;;8.66;100.00
57801;BME280;43627;42.728;23.256;2023-04-24T01:06:05;94721.13;;;9.23;100.00
57801;BME280;43627;42.728;23.256;2023-04-24T01:08:33;94656.00;;;8.77;100.00
57801;BME280;43627;42.728;23.256;2023-04-24T01:11:03;94663.38;;;8.85;100.00
57801;BME280;43627;42.728;23.256;2023-04-24T01:13:31;94693.69;;;9.11;100.00
57801;BME280;43627;42.728;23.256;2023-04-24T01:15:59;94700.66;;;9.03;100.00
57801;BME280;43627;42.728;23.256;2023-04-24T01:18:26;94721.34;;;9.10;100.00
57801;BME280;43627;42.728;23.256;2023-04-24T01:20:57;94697.94;;;9.03;100.00
57801;BME280;43627;42.728;23.256;2023-04-24T01:23:24;94709.88;;;8.97;100.00
57801;BME280;43627;42.728;23.256;2023-04-24T01:25:52;94636.44;;;8.54;100.00
57801;BME280;43627;42.728;23.256;2023-04-24T01:28:19;94681.66;;;8.85;100.00
57801;BME280;43627;42.728;23.256;2023-04-24T01:30:46;94682.63;;;8.64;100.00
57801;BME280;43627;42.728;23.256;2023-04-24T01:33:13;94670.09;;;8.39;100.00
57801;BME280;43627;42.728;23.256;2023-04-24T01:35:40;94652.00;;;8.17;100.00
57801;BME280;43627;42.728;23.256;2023-04-24T01:38:07;94693.81;;;8.47;100.00
57801;BME280;43627;42.728;23.256;2023-04-24T01:40:33;94683.69;;;8.39;100.00
57801;BME280;43627;42.728;23.256;2023-04-24T01:43:01;94690.47;;;8.43;100.00
57801;BME280;43627;42.728;23.256;2023-04-24T01:45:30;94636.00;;;8.19;100.00
57801;BME280;43627;42.728;23.256;2023-04-24T01:47:57;94678.09;;;8.51;100.00
57801;BME280;43627;42.728;23.256;2023-04-24T01:50:24;94617.44;;;7.99;100.00
57801;BME280;43627;42.728;23.256;2023-04-24T01:52:51;94701.47;;;8.67;100.00
57801;BME280;43627;42.728;23.256;2023-04-24T01:55:18;94693.50;;;8.64;100.00
57801;BME280;43627;42.728;23.256;2023-04-24T01:57:45;94662.09;;;8.53;100.00
57801;BME280;43627;42.728;23.256;2023-04-24T02:00:13;94648.53;;;8.26;100.00
57801;BME280;43627;42.728;23.256;2023-04-24T02:02:42;94634.03;;;8.29;100.00
57801;BME280;43627;42.728;23.256;2023-04-24T02:05:13;94695.91;;;8.52;100.00
57801;BME280;43627;42.728;23.256;2023-04-24T02:07:40;94694.53;;;8.57;100.00
57801;BME280;43627;42.728;23.256;2023-04-24T02:10:07;94694.56;;;8.48;100.00
57801;BME280;43627;42.728;23.256;2023-04-24T02:12:37;94690.16;;;8.41;100.00
57801;BME280;43627;42.728;23.256;2023-04-24T02:15:04;94696.34;;;8.23;100.00
57801;BME280;43627;42.728;23.256;2023-04-24T02:17:31;94693.47;;;8.09;100.00
57801;BME280;43627;42.728;23.256;2023-04-24T02:19:58;94696.19;;;7.99;100.00
57801;BME280;43627;42.728;23.256;2023-04-24T02:22:25;94681.56;;;7.88;100.00
57801;BME280;43627;42.728;23.256;2023-04-24T02:24:53;94688.31;;;7.83;100.00
57801;BME280;43627;42.728;23.256;2023-04-24T02:27:20;94679.69;;;7.76;100.00
57801;BME280;43627;42.728;23.256;2023-04-24T02:29:47;94614.06;;;7.31;100.00
57801;BME280;43627;42.728;23.256;2023-04-24T02:32:14;94670.78;;;7.66;100.00
57801;BME280;43627;42.728;23.256;2023-04-24T02:34:42;94668.72;;;7.70;100.00
57801;BME280;43627;42.728;23.256;2023-04-24T02:37:09;94629.44;;;7.34;100.00
57801;BME280;43627;42.728;23.256;2023-04-24T02:39:36;94663.25;;;7.61;100.00
57801;BME280;43627;42.728;23.256;2023-04-24T02:42:03;94662.06;;;7.71;100.00
57801;BME280;43627;42.728;23.256;2023-04-24T02:44:30;94642.75;;;7.60;100.00
57801;BME280;43627;42.728;23.256;2023-04-24T02:47:00;94672.31;;;7.85;100.00
57801;BME280;43627;42.728;23.256;2023-04-24T02:49:27;94666.59;;;7.83;100.00
57801;BME280;43627;42.728;23.256;2023-04-24T02:51:53;94642.44;;;7.67;100.00
57801;BME280;43627;42.728;23.256;2023-04-24T02:54:20;94645.63;;;7.74;100.00
57801;BME280;43627;42.728;23.256;2023-04-24T02:56:47;94640.81;;;7.79;100.00
57801;BME280;43627;42.728;23.256;2023-04-24T02:59:14;94645.63;;;7.84;100.00
57801;BME280;43627;42.728;23.256;2023-04-24T03:01:40;94663.59;;;8.09;100.00
57801;BME280;43627;42.728;23.256;2023-04-24T03:04:07;94668.59;;;8.10;100.00
57801;BME280;43627;42.728;23.256;2023-04-24T03:06:34;94664.81;;;8.08;100.00
57801;BME280;43627;42.728;23.256;2023-04-24T03:09:02;94648.22;;;8.06;100.00
57801;BME280;43627;42.728;23.256;2023-04-24T03:11:30;94653.50;;;8.09;100.00
57801;BME280;43627;42.728;23.256;2023-04-24T03:14:03;94669.78;;;8.18;100.00
57801;BME280;43627;42.728;23.256;2023-04-24T03:16:53;94670.25;;;8.17;100.00
57801;BME280;43627;42.728;23.256;2023-04-24T03:20:01;94637.38;;;7.87;100.00
57801;BME280;43627;42.728;23.256;2023-04-24T03:22:49;94634.03;;;7.92;100.00
57801;BME280;43627;42.728;23.256;2023-04-24T03:25:16;94647.16;;;8.03;100.00
57801;BME280;43627;42.728;23.256;2023-04-24T03:27:44;94576.72;;;7.54;100.00
57801;BME280;43627;42.728;23.256;2023-04-24T03:30:14;94614.44;;;7.88;100.00
57801;BME280;43627;42.728;23.256;2023-04-24T03:32:43;94600.56;;;7.77;100.00
57801;BME280;43627;42.728;23.256;2023-04-24T03:35:10;94658.78;;;8.22;100.00
57801;BME280;43627;42.728;23.256;2023-04-24T03:37:40;94601.16;;;7.81;100.00
57801;BME280;43627;42.728;23.256;2023-04-24T03:40:07;94670.56;;;8.37;100.00
57801;BME280;43627;42.728;23.256;2023-04-24T03:42:34;94648.19;;;8.24;100.00
57801;BME280;43627;42.728;23.256;2023-04-24T03:45:05;94672.81;;;8.48;100.00
57801;BME280;43627;42.728;23.256;2023-04-24T03:47:32;94670.25;;;8.53;100.00
57801;BME280;43627;42.728;23.256;2023-04-24T03:49:59;94629.06;;;8.37;100.00
57801;BME280;43627;42.728;23.256;2023-04-24T03:52:26;94673.97;;;8.74;100.00
57801;BME280;43627;42.728;23.256;2023-04-24T03:54:53;94662.22;;;8.59;100.00
57801;BME280;43627;42.728;23.256;2023-04-24T03:57:22;94662.97;;;8.59;100.00
57801;BME280;43627;42.728;23.256;2023-04-24T03:59:49;94631.13;;;8.60;100.00
57801;BME280;43627;42.728;23.256;2023-04-24T04:05:15;94659.53;;;9.10;100.00
57801;BME280;43627;42.728;23.256;2023-04-24T04:07:43;94624.00;;;8.72;100.00
57801;BME280;43627;42.728;23.256;2023-04-24T04:10:14;94663.53;;;9.24;100.00
57801;BME280;43627;42.728;23.256;2023-04-24T04:12:46;94679.06;;;9.33;100.00
57801;BME280;43627;42.728;23.256;2023-04-24T04:15:13;94667.25;;;9.36;100.00
57801;BME280;43627;42.728;23.256;2023-04-24T04:17:40;94649.09;;;9.42;100.00
57801;BME280;43627;42.728;23.256;2023-04-24T04:20:07;94625.28;;;9.28;100.00
57801;BME280;43627;42.728;23.256;2023-04-24T04:22:36;94640.13;;;9.51;100.00
57801;BME280;43627;42.728;23.256;2023-04-24T04:25:06;94663.41;;;9.76;100.00
57801;BME280;43627;42.728;23.256;2023-04-24T04:27:35;94679.41;;;9.83;100.00
57801;BME280;43627;42.728;23.256;2023-04-24T04:30:05;94628.28;;;9.39;100.00
57801;BME280;43627;42.728;23.256;2023-04-24T04:32:36;94673.69;;;9.81;100.00
57801;BME280;43627;42.728;23.256;2023-04-24T04:35:05;94686.72;;;10.00;100.00
57801;BME280;43627;42.728;23.256;2023-04-24T04:37:40;94696.84;;;10.00;100.00
57801;BME280;43627;42.728;23.256;2023-04-24T04:40:07;94692.28;;;10.06;100.00
57801;BME280;43627;42.728;23.256;2023-04-24T04:42:38;94682.22;;;10.12;100.00
57801;BME280;43627;42.728;23.256;2023-04-24T04:45:10;94669.22;;;9.92;100.00
57801;BME280;43627;42.728;23.256;2023-04-24T04:47:42;94703.97;;;10.21;100.00
57801;BME280;43627;42.728;23.256;2023-04-24T04:50:09;94706.19;;;10.32;99.56
57801;BME280;43627;42.728;23.256;2023-04-24T04:52:40;94664.84;;;10.10;97.08
57801;BME280;43627;42.728;23.256;2023-04-24T04:55:08;94629.31;;;10.04;97.42
57801;BME280;43627;42.728;23.256;2023-04-24T04:57:38;94599.47;;;10.10;94.33
57801;BME280;43627;42.728;23.256;2023-04-24T05:00:09;94709.94;;;10.73;91.56
57801;BME280;43627;42.728;23.256;2023-04-24T05:02:41;94712.84;;;10.84;90.74
57801;BME280;43627;42.728;23.256;2023-04-24T05:05:09;94711.25;;;11.07;88.28
57801;BME280;43627;42.728;23.256;2023-04-24T05:07:36;94719.75;;;11.09;85.11
57801;BME280;43627;42.728;23.256;2023-04-24T05:10:04;94628.22;;;10.64;86.11
57801;BME280;43627;42.728;23.256;2023-04-24T05:12:31;94649.75;;;10.62;83.64
57801;BME280;43627;42.728;23.256;2023-04-24T05:14:57;94674.66;;;10.55;89.09
57801;BME280;43627;42.728;23.256;2023-04-24T05:17:24;94703.81;;;10.78;89.23
57801;BME280;43627;42.728;23.256;2023-04-24T05:19:52;94704.00;;;10.90;87.32
57801;BME280;43627;42.728;23.256;2023-04-24T05:22:19;94716.31;;;10.70;96.54
57801;BME280;43627;42.728;23.256;2023-04-24T05:24:47;94702.91;;;10.81;92.31
57801;BME280;43627;42.728;23.256;2023-04-24T05:27:15;94679.94;;;10.73;88.79
57801;BME280;43627;42.728;23.256;2023-04-24T05:29:42;94711.53;;;10.80;88.30
57801;BME280;43627;42.728;23.256;2023-04-24T05:32:09;94703.09;;;10.93;92.50
57801;BME280;43627;42.728;23.256;2023-04-24T05:34:36;94656.03;;;10.68;88.97
57801;BME280;43627;42.728;23.256;2023-04-24T05:37:03;94701.28;;;11.04;84.67
57801;BME280;43627;42.728;23.256;2023-04-24T05:39:34;94699.09;;;11.23;84.70
57801;BME280;43627;42.728;23.256;2023-04-24T05:42:03;94683.09;;;11.31;82.06
57801;BME280;43627;42.728;23.256;2023-04-24T05:44:30;94719.22;;;11.40;79.06
57801;BME280;43627;42.728;23.256;2023-04-24T05:46:57;94683.94;;;11.37;82.04
57801;BME280;43627;42.728;23.256;2023-04-24T05:49:24;94704.28;;;11.86;80.07
57801;BME280;43627;42.728;23.256;2023-04-24T05:51:51;94716.59;;;12.16;68.99
57801;BME280;43627;42.728;23.256;2023-04-24T05:54:19;94642.59;;;12.20;65.18
57801;BME280;43627;42.728;23.256;2023-04-24T05:56:46;94713.06;;;13.03;63.16
57801;BME280;43627;42.728;23.256;2023-04-24T05:59:13;94721.03;;;13.27;60.97
57801;BME280;43627;42.728;23.256;2023-04-24T06:01:39;94704.53;;;13.53;59.97
57801;BME280;43627;42.728;23.256;2023-04-24T06:04:07;94717.78;;;13.97;56.57
57801;BME280;43627;42.728;23.256;2023-04-24T06:06:35;94676.09;;;13.44;54.29
57801;BME280;43627;42.728;23.256;2023-04-24T06:09:02;94711.50;;;13.85;54.88
57801;BME280;43627;42.728;23.256;2023-04-24T06:11:29;94710.00;;;13.90;53.98
57801;BME280;43627;42.728;23.256;2023-04-24T06:13:56;94692.47;;;14.19;53.85
57801;BME280;43627;42.728;23.256;2023-04-24T06:16:23;94716.81;;;14.54;51.94
57801;BME280;43627;42.728;23.256;2023-04-24T06:18:50;94722.56;;;14.56;51.46
57801;BME280;43627;42.728;23.256;2023-04-24T06:21:17;94673.81;;;14.28;51.38
57801;BME280;43627;42.728;23.256;2023-04-24T06:23:44;94715.44;;;14.21;52.09
57801;BME280;43627;42.728;23.256;2023-04-24T06:26:12;94718.56;;;14.03;52.75
57801;BME280;43627;42.728;23.256;2023-04-24T06:28:39;94735.28;;;14.05;53.60
57801;BME280;43627;42.728;23.256;2023-04-24T06:31:06;94717.28;;;13.98;53.42
57801;BME280;43627;42.728;23.256;2023-04-24T06:33:33;94695.25;;;13.82;54.52
57801;BME280;43627;42.728;23.256;2023-04-24T06:36:00;94718.28;;;13.95;55.69
57801;BME280;43627;42.728;23.256;2023-04-24T06:38:28;94674.72;;;13.60;55.33
57801;BME280;43627;42.728;23.256;2023-04-24T06:40:56;94719.31;;;14.04;54.77
57801;BME280;43627;42.728;23.256;2023-04-24T06:43:23;94706.34;;;14.58;53.18
57801;BME280;43627;42.728;23.256;2023-04-24T06:45:50;94708.44;;;14.97;52.30
57801;BME280;43627;42.728;23.256;2023-04-24T06:48:16;94648.97;;;14.49;51.65
57801;BME280;43627;42.728;23.256;2023-04-24T06:50:43;94620.22;;;14.39;51.19
57801;BME280;43627;42.728;23.256;2023-04-24T06:53:10;94678.00;;;14.18;52.72
57801;BME280;43627;42.728;23.256;2023-04-24T06:55:39;94696.88;;;14.59;52.63
57801;BME280;43627;42.728;23.256;2023-04-24T06:58:05;94686.72;;;14.93;51.70
57801;BME280;43627;42.728;23.256;2023-04-24T07:00:32;94691.75;;;15.28;51.94
57801;BME280;43627;42.728;23.256;2023-04-24T07:03:00;94694.97;;;15.15;51.20
57801;BME280;43627;42.728;23.256;2023-04-24T07:05:27;94677.72;;;14.87;51.33
57801;BME280;43627;42.728;23.256;2023-04-24T07:07:54;94702.69;;;14.95;52.15
57801;BME280;43627;42.728;23.256;2023-04-24T07:10:21;94666.22;;;14.66;51.80
57801;BME280;43627;42.728;23.256;2023-04-24T07:12:48;94694.25;;;14.98;51.85
57801;BME280;43627;42.728;23.256;2023-04-24T07:15:15;94680.47;;;14.81;52.00
57801;BME280;43627;42.728;23.256;2023-04-24T07:17:43;94659.22;;;14.65;51.65
57801;BME280;43627;42.728;23.256;2023-04-24T07:20:11;94659.53;;;14.78;51.93
57801;BME280;43627;42.728;23.256;2023-04-24T07:22:38;94670.50;;;14.95;51.69
57801;BME280;43627;42.728;23.256;2023-04-24T07:25:05;94687.00;;;15.34;51.47
57801;BME280;43627;42.728;23.256;2023-04-24T07:27:33;94640.31;;;15.06;51.48
57801;BME280;43627;42.728;23.256;2023-04-24T07:30:01;94703.47;;;15.34;51.09
57801;BME280;43627;42.728;23.256;2023-04-24T07:32:30;94691.50;;;15.71;50.48
57801;BME280;43627;42.728;23.256;2023-04-24T07:34:57;94684.78;;;15.61;51.29
57801;BME280;43627;42.728;23.256;2023-04-24T07:37:23;94664.28;;;15.39;51.05
57801;BME280;43627;42.728;23.256;2023-04-24T07:39:50;94644.78;;;14.81;52.58
57801;BME280;43627;42.728;23.256;2023-04-24T07:42:18;94666.81;;;15.26;52.65
57801;BME280;43627;42.728;23.256;2023-04-24T07:44:45;94682.50;;;15.31;52.56
57801;BME280;43627;42.728;23.256;2023-04-24T07:47:14;94669.28;;;15.47;51.85
57801;BME280;43627;42.728;23.256;2023-04-24T07:49:42;94667.78;;;15.57;51.50
57801;BME280;43627;42.728;23.256;2023-04-24T07:52:09;94654.00;;;15.85;50.60
57801;BME280;43627;42.728;23.256;2023-04-24T07:54:36;94666.47;;;16.03;50.55
57801;BME280;43627;42.728;23.256;2023-04-24T07:57:03;94677.03;;;16.45;49.82
57801;BME280;43627;42.728;23.256;2023-04-24T07:59:31;94680.69;;;16.65;49.54
57801;BME280;43627;42.728;23.256;2023-04-24T08:01:58;94642.69;;;16.57;49.33
57801;BME280;43627;42.728;23.256;2023-04-24T08:04:27;94626.16;;;16.69;48.91
57801;BME280;43627;42.728;23.256;2023-04-24T08:06:54;94617.13;;;16.21;48.96
57801;BME280;43627;42.728;23.256;2023-04-24T08:09:21;94667.28;;;16.50;49.31
57801;BME280;43627;42.728;23.256;2023-04-24T08:11:50;94659.03;;;16.50;49.12
57801;BME280;43627;42.728;23.256;2023-04-24T08:14:17;94624.13;;;16.17;49.58
57801;BME280;43627;42.728;23.256;2023-04-24T08:16:45;94654.84;;;16.32;50.43
57801;BME280;43627;42.728;23.256;2023-04-24T08:19:12;94653.03;;;16.46;49.63
57801;BME280;43627;42.728;23.256;2023-04-24T08:21:39;94650.81;;;16.85;49.21
57801;BME280;43627;42.728;23.256;2023-04-24T08:24:06;94656.53;;;16.93;49.49
57801;BME280;43627;42.728;23.256;2023-04-24T08:26:34;94594.84;;;16.66;48.73
57801;BME280;43627;42.728;23.256;2023-04-24T08:29:01;94602.25;;;16.88;49.04
57801;BME280;43627;42.728;23.256;2023-04-24T08:31:29;94576.47;;;16.44;48.94
57801;BME280;43627;42.728;23.256;2023-04-24T08:33:56;94614.28;;;16.38;49.63
57801;BME280;43627;42.728;23.256;2023-04-24T08:36:23;94617.53;;;16.42;50.60
57801;BME280;43627;42.728;23.256;2023-04-24T08:39:07;94591.41;;;16.60;50.25
57801;BME280;43627;42.728;23.256;2023-04-24T08:41:35;94627.81;;;17.19;48.36
57801;BME280;43627;42.728;23.256;2023-04-24T08:44:04;94611.88;;;17.36;48.39
57801;BME280;43627;42.728;23.256;2023-04-24T08:46:33;94584.34;;;17.06;47.97
57801;BME280;43627;42.728;23.256;2023-04-24T08:49:00;94579.78;;;16.78;48.61
57801;BME280;43627;42.728;23.256;2023-04-24T08:51:27;94605.00;;;17.18;49.04
57801;BME280;43627;42.728;23.256;2023-04-24T08:53:57;94616.66;;;17.60;47.77
57801;BME280;43627;42.728;23.256;2023-04-24T08:56:24;94551.69;;;17.40;47.29
57801;BME280;43627;42.728;23.256;2023-04-24T08:58:53;94578.09;;;17.30;47.61
57801;BME280;43627;42.728;23.256;2023-04-24T09:01:20;94568.56;;;17.31;48.20
57801;BME280;43627;42.728;23.256;2023-04-24T09:03:51;94597.34;;;17.60;47.60
57801;BME280;43627;42.728;23.256;2023-04-24T09:06:21;94560.53;;;17.57;47.11
57801;BME280;43627;42.728;23.256;2023-04-24T09:08:49;94572.41;;;17.77;46.53
57801;BME280;43627;42.728;23.256;2023-04-24T09:11:17;94552.91;;;17.69;46.97
57801;BME280;43627;42.728;23.256;2023-04-24T09:13:45;94587.72;;;17.96;47.14
57801;BME280;43627;42.728;23.256;2023-04-24T09:16:13;94567.03;;;17.60;46.89
57801;BME280;43627;42.728;23.256;2023-04-24T09:18:41;94535.38;;;17.42;47.74
57801;BME280;43627;42.728;23.256;2023-04-24T09:21:08;94569.63;;;17.77;46.69
57801;BME280;43627;42.728;23.256;2023-04-24T09:23:36;94573.53;;;17.87;47.00
57801;BME280;43627;42.728;23.256;2023-04-24T09:26:03;94561.25;;;18.07;47.50
57801;BME280;43627;42.728;23.256;2023-04-24T09:28:39;94552.28;;;17.82;47.02
57801;BME280;43627;42.728;23.256;2023-04-24T09:31:13;94565.50;;;18.08;46.23
57801;BME280;43627;42.728;23.256;2023-04-24T09:33:57;94512.50;;;17.96;45.90
57801;BME280;43627;42.728;23.256;2023-04-24T09:36:35;94539.28;;;18.39;45.39
57801;BME280;43627;42.728;23.256;2023-04-24T09:39:09;94494.44;;;18.14;44.72
57801;BME280;43627;42.728;23.256;2023-04-24T09:44:18;94559.09;;;19.07;44.38
57801;BME280;43627;42.728;23.256;2023-04-24T09:46:52;94554.53;;;19.09;43.13
57801;BME280;43627;42.728;23.256;2023-04-24T09:49:29;94545.69;;;19.11;43.17
57801;BME280;43627;42.728;23.256;2023-04-24T09:52:07;94541.41;;;18.46;43.68
57801;BME280;43627;42.728;23.256;2023-04-24T09:54:34;94554.19;;;19.13;43.36
57801;BME280;43627;42.728;23.256;2023-04-24T09:57:04;94515.50;;;19.13;42.61
57801;BME280;43627;42.728;23.256;2023-04-24T09:59:31;94447.69;;;19.12;42.51
57801;BME280;43627;42.728;23.256;2023-04-24T10:01:59;94494.72;;;19.38;45.29
57801;BME280;43627;42.728;23.256;2023-04-24T10:04:27;94515.34;;;19.51;44.40
57801;BME280;43627;42.728;23.256;2023-04-24T10:06:56;94487.06;;;19.84;42.03
57801;BME280;43627;42.728;23.256;2023-04-24T10:09:25;94494.91;;;20.27;43.20
57801;BME280;43627;42.728;23.256;2023-04-24T10:11:54;94513.13;;;20.70;41.35
57801;BME280;43627;42.728;23.256;2023-04-24T10:14:24;94508.78;;;20.82;40.31
57801;BME280;43627;42.728;23.256;2023-04-24T10:16:53;94496.75;;;20.59;40.41
57801;BME280;43627;42.728;23.256;2023-04-24T10:19:21;94494.13;;;20.19;40.68
57801;BME280;43627;42.728;23.256;2023-04-24T10:21:49;94493.31;;;20.32;39.70
57801;BME280;43627;42.728;23.256;2023-04-24T10:24:17;94494.75;;;20.12;40.17
57801;BME280;43627;42.728;23.256;2023-04-24T10:26:45;94495.59;;;20.20;40.07
57801;BME280;43627;42.728;23.256;2023-04-24T10:29:16;94496.75;;;20.59;39.93
57801;BME280;43627;42.728;23.256;2023-04-24T10:31:43;94497.97;;;20.50;39.41
57801;BME280;43627;42.728;23.256;2023-04-24T10:34:16;94498.06;;;20.11;39.55
57801;BME280;43627;42.728;23.256;2023-04-24T10:36:52;94485.22;;;20.00;39.07
57801;BME280;43627;42.728;23.256;2023-04-24T10:39:23;94483.97;;;20.22;39.74
57801;BME280;43627;42.728;23.256;2023-04-24T10:41:54;94472.53;;;20.39;38.92
57801;BME280;43627;42.728;23.256;2023-04-24T10:44:24;94475.03;;;20.29;38.62
57801;BME280;43627;42.728;23.256;2023-04-24T10:46:55;94473.31;;;20.26;38.48
57801;BME280;43627;42.728;23.256;2023-04-24T10:49:30;94463.41;;;20.31;39.44
57801;BME280;43627;42.728;23.256;2023-04-24T10:52:02;94471.81;;;20.25;39.96
57801;BME280;43627;42.728;23.256;2023-04-24T10:54:41;94464.59;;;20.22;40.38
57801;BME280;43627;42.728;23.256;2023-04-24T10:59:49;94465.13;;;19.86;40.50
57801;BME280;43627;42.728;23.256;2023-04-24T11:02:18;94458.13;;;19.72;40.29
57801;BME280;43627;42.728;23.256;2023-04-24T11:04:45;94470.84;;;19.88;40.16
57801;BME280;43627;42.728;23.256;2023-04-24T11:07:13;94475.09;;;19.89;39.94
57801;BME280;43627;42.728;23.256;2023-04-24T11:09:41;94467.75;;;20.05;41.38
57801;BME280;43627;42.728;23.256;2023-04-24T11:12:11;94456.97;;;20.15;40.80
57801;BME280;43627;42.728;23.256;2023-04-24T11:17:35;94505.53;;;19.10;44.30
57801;BME280;43627;42.728;23.256;2023-04-24T11:20:06;94493.41;;;17.98;53.11
57801;BME280;43627;42.728;23.256;2023-04-24T11:22:54;94493.75;;;16.72;65.22
57801;BME280;43627;42.728;23.256;2023-04-24T11:25:22;94498.03;;;16.68;65.93
57801;BME280;43627;42.728;23.256;2023-04-24T11:28:03;94483.31;;;16.60;65.29
57801;BME280;43627;42.728;23.256;2023-04-24T11:30:32;94470.56;;;16.87;63.32
57801;BME280;43627;42.728;23.256;2023-04-24T11:33:04;94486.78;;;17.20;57.83
57801;BME280;43627;42.728;23.256;2023-04-24T11:35:35;94470.88;;;18.13;57.34
57801;BME280;43627;42.728;23.256;2023-04-24T11:38:04;94479.84;;;18.83;57.85
57801;BME280;43627;42.728;23.256;2023-04-24T11:40:34;94473.97;;;19.19;55.72
57801;BME280;43627;42.728;23.256;2023-04-24T11:43:02;94459.19;;;19.69;53.80
57801;BME280;43627;42.728;23.256;2023-04-24T11:45:33;94461.38;;;19.97;48.41
57801;BME280;43627;42.728;23.256;2023-04-24T11:48:00;94460.91;;;19.72;48.13
57801;BME280;43627;42.728;23.256;2023-04-24T11:50:27;94459.50;;;18.99;50.25
57801;BME280;43627;42.728;23.256;2023-04-24T11:52:54;94459.31;;;19.24;51.28
57801;BME280;43627;42.728;23.256;2023-04-24T11:55:24;94456.66;;;19.18;50.17
57801;BME280;43627;42.728;23.256;2023-04-24T11:57:56;94449.00;;;19.37;48.63
57801;BME280;43627;42.728;23.256;2023-04-24T12:00:31;94443.78;;;19.60;48.94
57801;BME280;43627;42.728;23.256;2023-04-24T12:03:11;94440.06;;;19.58;47.95
57801;BME280;43627;42.728;23.256;2023-04-24T12:05:39;94442.78;;;19.84;47.06
57801;BME280;43627;42.728;23.256;2023-04-24T12:08:06;94444.50;;;19.74;46.96
57801;BME280;43627;42.728;23.256;2023-04-24T12:10:34;94427.41;;;19.62;48.57
57801;BME280;43627;42.728;23.256;2023-04-24T12:13:01;94426.38;;;20.00;46.07
57801;BME280;43627;42.728;23.256;2023-04-24T12:15:28;94424.63;;;19.76;45.85
57801;BME280;43627;42.728;23.256;2023-04-24T12:17:56;94438.34;;;19.68;46.85
57801;BME280;43627;42.728;23.256;2023-04-24T12:20:31;94443.06;;;19.33;48.64
57801;BME280;43627;42.728;23.256;2023-04-24T12:22:59;94424.56;;;19.15;49.08
57801;BME280;43627;42.728;23.256;2023-04-24T12:25:31;94413.06;;;19.24;48.01
57801;BME280;43627;42.728;23.256;2023-04-24T12:30:34;94398.16;;;19.40;48.00
57801;BME280;43627;42.728;23.256;2023-04-24T12:33:02;94402.09;;;19.32;46.42
57801;BME280;43627;42.728;23.256;2023-04-24T12:35:31;94397.19;;;19.51;47.04
57801;BME280;43627;42.728;23.256;2023-04-24T12:38:09;94387.72;;;19.60;45.99
57801;BME280;43627;42.728;23.256;2023-04-24T12:40:39;94374.53;;;19.66;46.01
57801;BME280;43627;42.728;23.256;2023-04-24T12:43:18;94382.03;;;19.79;46.64
57801;BME280;43627;42.728;23.256;2023-04-24T12:45:47;94369.53;;;19.98;46.84
57801;BME280;43627;42.728;23.256;2023-04-24T12:48:14;94369.78;;;20.08;45.49
57801;BME280;43627;42.728;23.256;2023-04-24T12:50:42;94351.13;;;20.01;46.40
57801;BME280;43627;42.728;23.256;2023-04-24T12:53:12;94362.22;;;20.09;45.65
57801;BME280;43627;42.728;23.256;2023-04-24T12:55:39;94342.94;;;20.37;44.75
57801;BME280;43627;42.728;23.256;2023-04-24T12:58:06;94346.78;;;20.34;43.65
57801;BME280;43627;42.728;23.256;2023-04-24T13:00:33;94332.63;;;20.38;44.24
57801;BME280;43627;42.728;23.256;2023-04-24T13:03:00;94338.03;;;20.02;42.32
57801;BME280;43627;42.728;23.256;2023-04-24T13:05:28;94340.09;;;19.88;43.70
57801;BME280;43627;42.728;23.256;2023-04-24T13:07:54;94334.91;;;19.84;43.21
57801;BME280;43627;42.728;23.256;2023-04-24T13:10:22;94338.75;;;20.02;43.66
57801;BME280;43627;42.728;23.256;2023-04-24T13:12:48;94327.53;;;20.08;43.03
57801;BME280;43627;42.728;23.256;2023-04-24T13:15:16;94330.06;;;20.19;41.20